createdAt,value
2023-05-07T00:00:54.217Z,0.00
2023-05-07T00:01:54.221Z,0.00
2023-05-07T00:02:54.305Z,0.00
2023-05-07T00:03:54.334Z,0.00
2023-05-07T00:04:54.248Z,0.00
2023-05-07T00:05:54.172Z,0.00
2023-05-07T00:06:54.137Z,0.00
2023-05-07T00:07:54.175Z,0.00
2023-05-07T00:08:54.138Z,0.00
2023-05-07T00:09:54.129Z,0.00
2023-05-07T00:10:54.138Z,0.00
2023-05-07T00:11:54.113Z,0.00
2023-05-07T00:12:54.100Z,0.00
2023-05-07T00:13:54.101Z,0.00
2023-05-07T00:14:54.072Z,0.00
2023-05-07T00:15:54.085Z,0.00
2023-05-07T00:16:54.108Z,0.00
2023-05-07T00:17:54.060Z,0.00
2023-05-07T00:18:54.065Z,0.00
2023-05-07T00:19:54.032Z,0.00
2023-05-07T00:20:54.100Z,0.00
2023-05-07T00:21:54.001Z,0.00
2023-05-07T00:22:53.974Z,0.00
2023-05-07T00:23:53.974Z,0.00
2023-05-07T00:24:53.965Z,0.00
2023-05-07T00:25:53.954Z,0.00
2023-05-07T00:26:53.934Z,0.00
2023-05-07T00:27:53.917Z,0.00
2023-05-07T00:28:53.912Z,0.00
2023-05-07T00:29:53.905Z,0.00
2023-05-07T00:30:53.890Z,0.00
2023-05-07T00:31:53.926Z,0.00
2023-05-07T00:32:53.889Z,0.00
2023-05-07T00:33:53.893Z,0.00
2023-05-07T00:34:53.841Z,0.00
2023-05-07T00:35:53.852Z,0.00
2023-05-07T00:36:53.822Z,0.00
2023-05-07T00:37:53.830Z,0.00
2023-05-07T00:38:53.822Z,0.00
2023-05-07T00:39:53.783Z,0.00
2023-05-07T00:40:53.791Z,0.00
2023-05-07T00:41:53.770Z,0.00
2023-05-07T00:42:53.753Z,0.00
2023-05-07T00:43:53.739Z,0.00
2023-05-07T00:44:53.750Z,0.00
2023-05-07T00:45:53.736Z,0.00
2023-05-07T00:46:53.722Z,0.00
2023-05-07T00:47:53.767Z,0.00
2023-05-07T00:48:53.693Z,0.00
2023-05-07T00:49:53.695Z,0.00
2023-05-07T00:50:53.671Z,0.00
2023-05-07T00:51:53.644Z,0.00
2023-05-07T00:52:53.658Z,0.00
2023-05-07T00:53:53.618Z,0.00
2023-05-07T00:54:53.615Z,0.00
2023-05-07T00:55:53.622Z,0.00
2023-05-07T00:56:53.610Z,0.00
2023-05-07T00:57:53.643Z,0.00
2023-05-07T00:58:53.611Z,0.00
2023-05-07T00:59:53.593Z,0.00
2023-05-07T01:00:53.611Z,0.00
2023-05-07T01:01:53.538Z,0.00
2023-05-07T01:02:53.596Z,0.00
2023-05-07T01:03:53.553Z,0.00
2023-05-07T01:04:53.515Z,0.00
2023-05-07T01:05:53.493Z,0.00
2023-05-07T01:06:53.517Z,0.00
2023-05-07T01:07:53.469Z,0.00
2023-05-07T01:08:53.462Z,0.00
2023-05-07T01:09:53.451Z,0.00
2023-05-07T01:10:53.439Z,0.00
2023-05-07T01:11:53.445Z,0.00
2023-05-07T01:12:53.454Z,0.00
2023-05-07T01:13:53.410Z,0.00
2023-05-07T01:14:53.405Z,0.00
2023-05-07T01:15:53.395Z,0.00
2023-05-07T01:16:53.392Z,0.00
2023-05-07T01:17:53.383Z,0.00
2023-05-07T01:18:53.367Z,0.00
2023-05-07T01:19:53.328Z,0.00
2023-05-07T01:20:53.333Z,0.00
2023-05-07T01:21:53.334Z,0.00
2023-05-07T01:22:53.306Z,0.00
2023-05-07T01:23:53.296Z,0.00
2023-05-07T01:24:53.293Z,0.00
2023-05-07T01:25:53.397Z,0.00
2023-05-07T01:26:53.282Z,0.00
2023-05-07T01:27:53.247Z,0.00
2023-05-07T01:28:53.281Z,0.00
2023-05-07T01:29:53.244Z,0.00
2023-05-07T01:30:53.239Z,0.00
2023-05-07T01:31:53.322Z,0.00
2023-05-07T01:32:53.332Z,0.00
2023-05-07T01:33:53.190Z,0.00
2023-05-07T01:34:53.185Z,0.00
2023-05-07T01:35:53.271Z,0.00
2023-05-07T01:36:53.160Z,0.00
2023-05-07T01:37:53.152Z,0.00
2023-05-07T01:38:53.202Z,0.00
2023-05-07T01:39:53.121Z,0.00
2023-05-07T01:40:53.115Z,0.00
2023-05-07T01:41:53.102Z,0.00
2023-05-07T01:42:53.070Z,0.00
2023-05-07T01:43:53.091Z,0.00
2023-05-07T01:44:53.050Z,0.00
2023-05-07T01:45:53.082Z,0.00
2023-05-07T01:46:53.080Z,0.00
2023-05-07T01:47:53.077Z,0.00
2023-05-07T01:48:54.719Z,0.00
2023-05-07T01:49:53.008Z,0.00
2023-05-07T01:50:52.993Z,0.00
2023-05-07T01:51:52.978Z,0.00
2023-05-07T01:52:52.976Z,0.00
2023-05-07T01:53:52.972Z,0.00
2023-05-07T01:54:52.968Z,0.00
2023-05-07T01:55:52.941Z,0.00
2023-05-07T01:56:52.921Z,0.00
2023-05-07T01:57:52.977Z,0.00
2023-05-07T01:58:52.909Z,0.00
2023-05-07T01:59:52.907Z,0.00
2023-05-07T02:00:52.907Z,0.00
2023-05-07T02:01:52.984Z,0.00
2023-05-07T02:02:53.026Z,0.00
2023-05-07T02:03:52.934Z,0.00
2023-05-07T02:04:52.861Z,0.00
2023-05-07T02:05:52.841Z,0.00
2023-05-07T02:06:52.852Z,0.00
2023-05-07T02:07:52.810Z,0.00
2023-05-07T02:08:52.776Z,0.00
2023-05-07T02:09:52.788Z,0.00
2023-05-07T02:10:52.792Z,0.00
2023-05-07T02:11:52.883Z,0.00
2023-05-07T02:12:52.756Z,0.00
2023-05-07T02:13:52.734Z,0.00
2023-05-07T02:14:52.826Z,0.00
2023-05-07T02:15:52.768Z,0.00
2023-05-07T02:16:52.802Z,0.00
2023-05-07T02:17:52.741Z,0.00
2023-05-07T02:18:52.690Z,0.00
2023-05-07T02:19:52.675Z,0.00
2023-05-07T02:20:52.675Z,0.00
2023-05-07T02:21:52.649Z,0.00
2023-05-07T02:22:52.647Z,0.00
2023-05-07T02:23:52.656Z,0.00
2023-05-07T02:24:52.630Z,0.00
2023-05-07T02:25:52.631Z,0.00
2023-05-07T02:26:52.612Z,0.00
2023-05-07T02:27:52.581Z,0.00
2023-05-07T02:28:52.595Z,0.00
2023-05-07T02:29:52.570Z,0.00
2023-05-07T02:30:52.565Z,0.00
2023-05-07T02:31:52.592Z,0.00
2023-05-07T02:32:52.631Z,0.00
2023-05-07T02:33:52.539Z,0.00
2023-05-07T02:34:52.521Z,0.00
2023-05-07T02:35:52.486Z,0.00
2023-05-07T02:36:52.524Z,0.00
2023-05-07T02:37:52.482Z,0.00
2023-05-07T02:38:52.496Z,0.00
2023-05-07T02:39:52.459Z,0.00
2023-05-07T02:40:52.462Z,0.00
2023-05-07T02:41:52.458Z,0.00
2023-05-07T02:42:52.428Z,0.00
2023-05-07T02:43:52.415Z,0.00
2023-05-07T02:44:52.415Z,0.00
2023-05-07T02:45:52.439Z,0.00
2023-05-07T02:46:52.383Z,0.00
2023-05-07T02:47:52.376Z,0.00
2023-05-07T02:48:52.348Z,0.00
2023-05-07T02:49:52.349Z,0.00
2023-05-07T02:50:52.345Z,0.00
2023-05-07T02:51:52.316Z,0.00
2023-05-07T02:52:52.337Z,0.00
2023-05-07T02:53:52.283Z,0.00
2023-05-07T02:54:52.283Z,0.00
2023-05-07T02:55:52.281Z,0.00
2023-05-07T02:56:52.304Z,0.00
2023-05-07T02:57:52.273Z,0.00
2023-05-07T02:58:52.258Z,0.00
2023-05-07T02:59:53.064Z,0.00
2023-05-07T03:00:52.262Z,0.00
2023-05-07T03:01:52.272Z,0.00
2023-05-07T03:02:52.242Z,0.00
2023-05-07T03:03:52.213Z,0.00
2023-05-07T03:04:52.170Z,0.00
2023-05-07T03:05:52.160Z,0.00
2023-05-07T03:06:52.172Z,0.00
2023-05-07T03:07:52.124Z,0.00
2023-05-07T03:08:52.121Z,0.00
2023-05-07T03:09:52.122Z,0.00
2023-05-07T03:10:52.113Z,0.00
2023-05-07T03:11:52.120Z,0.00
2023-05-07T03:12:52.120Z,0.00
2023-05-07T03:13:52.115Z,0.00
2023-05-07T03:14:52.083Z,0.00
2023-05-07T03:15:52.128Z,0.00
2023-05-07T03:16:52.068Z,0.00
2023-05-07T03:17:52.040Z,0.00
2023-05-07T03:18:52.059Z,0.00
2023-05-07T03:19:52.034Z,0.00
2023-05-07T03:20:52.025Z,0.00
2023-05-07T03:21:51.992Z,0.00
2023-05-07T03:22:51.973Z,0.00
2023-05-07T03:23:51.981Z,0.00
2023-05-07T03:24:51.980Z,0.00
2023-05-07T03:25:51.925Z,0.00
2023-05-07T03:26:51.936Z,0.00
2023-05-07T03:27:51.950Z,0.00
2023-05-07T03:28:51.913Z,0.00
2023-05-07T03:29:51.897Z,0.00
2023-05-07T03:30:51.918Z,0.00
2023-05-07T03:31:51.972Z,0.00
2023-05-07T03:32:51.948Z,0.00
2023-05-07T03:33:51.854Z,0.00
2023-05-07T03:34:51.841Z,0.00
2023-05-07T03:35:51.810Z,0.00
2023-05-07T03:36:51.831Z,0.00
2023-05-07T03:37:51.803Z,0.00
2023-05-07T03:38:51.813Z,0.00
2023-05-07T03:39:51.850Z,0.00
2023-05-07T03:40:51.766Z,0.00
2023-05-07T03:41:51.748Z,0.00
2023-05-07T03:42:51.743Z,0.00
2023-05-07T03:43:51.733Z,0.00
2023-05-07T03:44:51.738Z,0.00
2023-05-07T03:45:51.709Z,0.00
2023-05-07T03:46:51.748Z,0.00
2023-05-07T03:47:51.720Z,0.00
2023-05-07T03:48:51.694Z,0.00
2023-05-07T03:49:51.680Z,0.00
2023-05-07T03:50:51.665Z,0.00
2023-05-07T03:51:51.662Z,0.00
2023-05-07T03:52:51.659Z,0.00
2023-05-07T03:53:51.666Z,0.00
2023-05-07T03:54:51.617Z,0.00
2023-05-07T03:55:51.606Z,0.00
2023-05-07T03:56:51.602Z,0.00
2023-05-07T03:57:51.583Z,0.00
2023-05-07T03:58:51.594Z,5.62
2023-05-07T03:59:51.667Z,5.62
2023-05-07T04:00:51.559Z,5.62
2023-05-07T04:01:51.575Z,5.62
2023-05-07T04:02:51.711Z,5.62
2023-05-07T04:03:51.613Z,5.62
2023-05-07T04:04:51.520Z,5.62
2023-05-07T04:05:51.493Z,5.62
2023-05-07T04:06:51.495Z,11.25
2023-05-07T04:07:51.468Z,11.25
2023-05-07T04:08:51.467Z,11.25
2023-05-07T04:09:51.465Z,11.25
2023-05-07T04:10:51.438Z,11.25
2023-05-07T04:11:51.444Z,16.88
2023-05-07T04:12:51.445Z,16.88
2023-05-07T04:13:51.417Z,16.88
2023-05-07T04:14:51.402Z,16.88
2023-05-07T04:15:51.388Z,16.88
2023-05-07T04:16:51.436Z,22.50
2023-05-07T04:17:51.370Z,22.50
2023-05-07T04:18:51.358Z,22.50
2023-05-07T04:19:51.365Z,22.50
2023-05-07T04:20:51.329Z,22.50
2023-05-07T04:21:51.339Z,28.12
2023-05-07T04:22:51.314Z,28.12
2023-05-07T04:23:51.330Z,28.12
2023-05-07T04:24:51.298Z,28.12
2023-05-07T04:25:51.266Z,33.75
2023-05-07T04:26:51.268Z,33.75
2023-05-07T04:27:51.252Z,33.75
2023-05-07T04:28:51.229Z,33.75
2023-05-07T04:29:51.239Z,33.75
2023-05-07T04:30:51.222Z,33.75
2023-05-07T04:31:51.240Z,39.38
2023-05-07T04:32:51.245Z,39.38
2023-05-07T04:33:51.196Z,39.38
2023-05-07T04:34:51.198Z,39.38
2023-05-07T04:35:51.151Z,39.38
2023-05-07T04:36:51.174Z,45.00
2023-05-07T04:37:51.141Z,45.00
2023-05-07T04:38:51.118Z,45.00
2023-05-07T04:39:51.122Z,45.00
2023-05-07T04:40:51.107Z,45.00
2023-05-07T04:41:51.094Z,50.62
2023-05-07T04:42:51.085Z,50.62
2023-05-07T04:43:51.094Z,50.62
2023-05-07T04:44:51.074Z,50.62
2023-05-07T04:45:51.105Z,56.25
2023-05-07T04:46:51.044Z,56.25
2023-05-07T04:47:51.059Z,56.25
2023-05-07T04:48:51.006Z,56.25
2023-05-07T04:49:51.014Z,61.88
2023-05-07T04:50:50.999Z,61.88
2023-05-07T04:51:50.977Z,61.88
2023-05-07T04:52:50.984Z,61.88
2023-05-07T04:53:50.954Z,67.50
2023-05-07T04:54:50.946Z,67.50
2023-05-07T04:55:50.947Z,67.50
2023-05-07T04:56:50.941Z,73.12
2023-05-07T04:57:50.925Z,73.12
2023-05-07T04:58:50.909Z,73.12
2023-05-07T04:59:50.898Z,78.75
2023-05-07T05:00:50.885Z,78.75
2023-05-07T05:01:51.012Z,84.38
2023-05-07T05:02:50.904Z,84.38
2023-05-07T05:03:50.880Z,84.38
2023-05-07T05:04:50.849Z,90.00
2023-05-07T05:05:50.831Z,90.00
2023-05-07T05:06:50.834Z,95.62
2023-05-07T05:07:50.824Z,95.62
2023-05-07T05:08:50.807Z,95.62
2023-05-07T05:09:50.802Z,101.25
2023-05-07T05:10:50.881Z,101.25
2023-05-07T05:11:50.770Z,106.88
2023-05-07T05:12:50.772Z,106.88
2023-05-07T05:13:50.754Z,112.50
2023-05-07T05:14:50.733Z,112.50
2023-05-07T05:15:50.765Z,112.50
2023-05-07T05:16:50.754Z,118.12
2023-05-07T05:17:50.748Z,123.75
2023-05-07T05:18:50.715Z,129.38
2023-05-07T05:19:50.682Z,135.00
2023-05-07T05:20:50.669Z,140.62
2023-05-07T05:21:50.676Z,146.25
2023-05-07T05:22:50.637Z,151.88
2023-05-07T05:23:50.652Z,151.88
2023-05-07T05:24:50.636Z,157.50
2023-05-07T05:25:50.599Z,163.12
2023-05-07T05:26:50.593Z,163.12
2023-05-07T05:27:50.596Z,168.75
2023-05-07T05:28:50.561Z,168.75
2023-05-07T05:29:50.565Z,168.75
2023-05-07T05:30:50.539Z,168.75
2023-05-07T05:31:50.601Z,168.75
2023-05-07T05:32:50.574Z,163.12
2023-05-07T05:33:50.516Z,163.12
2023-05-07T05:34:50.501Z,157.50
2023-05-07T05:35:50.501Z,151.88
2023-05-07T05:36:50.489Z,151.88
2023-05-07T05:37:50.485Z,151.88
2023-05-07T05:38:50.488Z,151.88
2023-05-07T05:39:50.482Z,151.88
2023-05-07T05:40:50.442Z,151.88
2023-05-07T05:41:50.434Z,151.88
2023-05-07T05:42:50.437Z,146.25
2023-05-07T05:43:50.432Z,146.25
2023-05-07T05:44:50.398Z,146.25
2023-05-07T05:45:50.408Z,146.25
2023-05-07T05:46:50.446Z,146.25
2023-05-07T05:47:50.402Z,146.25
2023-05-07T05:48:50.346Z,140.62
2023-05-07T05:49:50.353Z,140.62
2023-05-07T05:50:50.338Z,135.00
2023-05-07T05:51:50.320Z,135.00
2023-05-07T05:52:50.307Z,135.00
2023-05-07T05:53:50.282Z,135.00
2023-05-07T05:54:50.288Z,135.00
2023-05-07T05:55:50.289Z,135.00
2023-05-07T05:56:50.276Z,135.00
2023-05-07T05:57:50.278Z,140.62
2023-05-07T05:58:50.327Z,140.62
2023-05-07T05:59:50.236Z,140.62
2023-05-07T06:00:50.240Z,140.62
2023-05-07T06:01:50.276Z,146.25
2023-05-07T06:02:50.286Z,146.25
2023-05-07T06:03:50.193Z,146.25
2023-05-07T06:04:50.207Z,146.25
2023-05-07T06:05:50.167Z,146.25
2023-05-07T06:06:50.157Z,146.25
2023-05-07T06:07:50.154Z,146.25
2023-05-07T06:08:50.150Z,146.25
2023-05-07T06:09:50.129Z,151.88
2023-05-07T06:10:50.130Z,151.88
2023-05-07T06:11:50.104Z,151.88
2023-05-07T06:12:50.177Z,151.88
2023-05-07T06:13:50.093Z,157.50
2023-05-07T06:14:50.066Z,157.50
2023-05-07T06:15:50.069Z,157.50
2023-05-07T06:16:50.074Z,163.12
2023-05-07T06:17:50.176Z,168.75
2023-05-07T06:18:50.036Z,168.75
2023-05-07T06:19:50.033Z,174.38
2023-05-07T06:20:50.019Z,180.00
2023-05-07T06:21:50.001Z,180.00
2023-05-07T06:22:49.976Z,185.62
2023-05-07T06:23:49.973Z,185.62
2023-05-07T06:24:49.972Z,185.62
2023-05-07T06:25:50.029Z,185.62
2023-05-07T06:26:49.938Z,185.62
2023-05-07T06:27:49.931Z,185.62
2023-05-07T06:28:49.899Z,185.62
2023-05-07T06:29:49.900Z,185.62
2023-05-07T06:30:49.903Z,185.62
2023-05-07T06:31:49.915Z,180.00
2023-05-07T06:32:49.894Z,180.00
2023-05-07T06:33:49.847Z,180.00
2023-05-07T06:34:49.828Z,180.00
2023-05-07T06:35:49.841Z,180.00
2023-05-07T06:36:49.841Z,185.62
2023-05-07T06:37:49.822Z,185.62
2023-05-07T06:38:49.801Z,191.25
2023-05-07T06:39:49.786Z,196.88
2023-05-07T06:40:49.785Z,202.50
2023-05-07T06:41:49.794Z,202.50
2023-05-07T06:42:49.771Z,208.12
2023-05-07T06:43:49.756Z,208.12
2023-05-07T06:44:49.741Z,219.38
2023-05-07T06:45:49.828Z,230.62
2023-05-07T06:46:49.761Z,241.88
2023-05-07T06:47:49.758Z,258.75
2023-05-07T06:48:49.705Z,275.62
2023-05-07T06:49:49.687Z,292.50
2023-05-07T06:50:49.708Z,320.62
2023-05-07T06:51:49.650Z,343.12
2023-05-07T06:52:49.667Z,343.12
2023-05-07T06:53:49.638Z,348.75
2023-05-07T06:54:49.647Z,343.12
2023-05-07T06:55:49.611Z,331.88
2023-05-07T06:56:49.590Z,320.62
2023-05-07T06:57:49.616Z,315.00
2023-05-07T06:58:49.576Z,298.12
2023-05-07T06:59:49.577Z,292.50
2023-05-07T07:00:49.576Z,292.50
2023-05-07T07:01:49.601Z,292.50
2023-05-07T07:02:49.575Z,286.88
2023-05-07T07:03:49.531Z,281.25
2023-05-07T07:04:49.560Z,275.62
2023-05-07T07:05:49.507Z,281.25
2023-05-07T07:06:49.520Z,281.25
2023-05-07T07:07:49.474Z,281.25
2023-05-07T07:08:49.450Z,270.00
2023-05-07T07:09:49.465Z,253.12
2023-05-07T07:10:49.460Z,236.25
2023-05-07T07:11:49.416Z,225.00
2023-05-07T07:12:49.467Z,219.38
2023-05-07T07:13:49.418Z,213.75
2023-05-07T07:14:49.391Z,208.12
2023-05-07T07:15:49.410Z,202.50
2023-05-07T07:16:49.373Z,202.50
2023-05-07T07:17:49.420Z,202.50
2023-05-07T07:18:49.358Z,213.75
2023-05-07T07:19:49.325Z,225.00
2023-05-07T07:20:49.323Z,236.25
2023-05-07T07:21:49.324Z,253.12
2023-05-07T07:22:49.285Z,275.62
2023-05-07T07:23:49.302Z,292.50
2023-05-07T07:24:49.272Z,309.38
2023-05-07T07:25:49.295Z,326.25
2023-05-07T07:26:49.243Z,343.12
2023-05-07T07:27:49.258Z,343.12
2023-05-07T07:28:49.240Z,331.88
2023-05-07T07:29:49.238Z,326.25
2023-05-07T07:30:49.215Z,326.25
2023-05-07T07:31:49.338Z,320.62
2023-05-07T07:32:49.227Z,326.25
2023-05-07T07:33:50.426Z,331.88
2023-05-07T07:34:49.166Z,331.88
2023-05-07T07:35:49.168Z,331.88
2023-05-07T07:36:49.148Z,331.88
2023-05-07T07:37:49.140Z,326.25
2023-05-07T07:38:49.141Z,326.25
2023-05-07T07:39:49.133Z,309.38
2023-05-07T07:40:49.146Z,292.50
2023-05-07T07:41:49.101Z,292.50
2023-05-07T07:42:49.085Z,281.25
2023-05-07T07:43:49.991Z,275.62
2023-05-07T07:44:49.064Z,275.62
2023-05-07T07:45:49.043Z,281.25
2023-05-07T07:46:49.117Z,281.25
2023-05-07T07:47:49.114Z,281.25
2023-05-07T07:48:49.019Z,275.62
2023-05-07T07:49:49.005Z,264.38
2023-05-07T07:50:49.012Z,247.50
2023-05-07T07:51:48.981Z,236.25
2023-05-07T07:52:48.970Z,225.00
2023-05-07T07:53:48.981Z,213.75
2023-05-07T07:54:48.962Z,208.12
2023-05-07T07:55:48.954Z,196.88
2023-05-07T07:56:48.949Z,191.25
2023-05-07T07:57:48.918Z,180.00
2023-05-07T07:58:48.925Z,180.00
2023-05-07T07:59:48.908Z,174.38
2023-05-07T08:00:48.920Z,168.75
2023-05-07T08:01:48.952Z,163.12
2023-05-07T08:02:48.961Z,163.12
2023-05-07T08:03:48.957Z,163.12
2023-05-07T08:04:48.853Z,163.12
2023-05-07T08:05:48.842Z,163.12
2023-05-07T08:06:48.842Z,163.12
2023-05-07T08:07:48.833Z,157.50
2023-05-07T08:08:48.814Z,157.50
2023-05-07T08:09:48.815Z,157.50
2023-05-07T08:10:48.795Z,163.12
2023-05-07T08:11:48.776Z,163.12
2023-05-07T08:12:48.805Z,168.75
2023-05-07T08:13:48.800Z,174.38
2023-05-07T08:14:48.747Z,174.38
2023-05-07T08:15:48.755Z,185.62
2023-05-07T08:16:48.766Z,191.25
2023-05-07T08:17:48.757Z,196.88
2023-05-07T08:18:48.710Z,202.50
2023-05-07T08:19:48.708Z,208.12
2023-05-07T08:20:48.690Z,208.12
2023-05-07T08:21:48.695Z,208.12
2023-05-07T08:22:48.702Z,208.12
2023-05-07T08:23:48.708Z,208.12
2023-05-07T08:24:48.658Z,202.50
2023-05-07T08:25:48.707Z,196.88
2023-05-07T08:26:48.648Z,202.50
2023-05-07T08:27:48.620Z,202.50
2023-05-07T08:28:48.599Z,202.50
2023-05-07T08:29:48.605Z,202.50
2023-05-07T08:30:48.624Z,208.12
2023-05-07T08:31:48.613Z,219.38
2023-05-07T08:32:48.620Z,219.38
2023-05-07T08:33:48.571Z,230.62
2023-05-07T08:34:48.579Z,230.62
2023-05-07T08:35:48.566Z,236.25
2023-05-07T08:36:48.544Z,230.62
2023-05-07T08:37:48.535Z,230.62
2023-05-07T08:38:48.518Z,225.00
2023-05-07T08:39:48.517Z,225.00
2023-05-07T08:40:48.508Z,230.62
2023-05-07T08:41:48.508Z,225.00
2023-05-07T08:42:48.471Z,225.00
2023-05-07T08:43:48.488Z,236.25
2023-05-07T08:44:48.496Z,247.50
2023-05-07T08:45:48.481Z,253.12
2023-05-07T08:46:48.578Z,258.75
2023-05-07T08:47:48.445Z,270.00
2023-05-07T08:48:48.403Z,281.25
2023-05-07T08:49:48.408Z,281.25
2023-05-07T08:50:48.439Z,281.25
2023-05-07T08:51:48.393Z,292.50
2023-05-07T08:52:48.352Z,292.50
2023-05-07T08:53:48.387Z,298.12
2023-05-07T08:54:48.348Z,303.75
2023-05-07T08:55:48.392Z,309.38
2023-05-07T08:56:48.348Z,309.38
2023-05-07T08:57:48.314Z,309.38
2023-05-07T08:58:48.305Z,315.00
2023-05-07T08:59:48.303Z,309.38
2023-05-07T09:00:48.308Z,309.38
2023-05-07T09:01:48.324Z,303.75
2023-05-07T09:02:48.281Z,303.75
2023-05-07T09:03:48.315Z,298.12
2023-05-07T09:04:48.237Z,298.12
2023-05-07T09:05:48.254Z,298.12
2023-05-07T09:06:48.225Z,298.12
2023-05-07T09:07:48.210Z,298.12
2023-05-07T09:08:48.207Z,292.50
2023-05-07T09:09:48.201Z,292.50
2023-05-07T09:10:48.176Z,298.12
2023-05-07T09:11:48.198Z,298.12
2023-05-07T09:12:48.224Z,303.75
2023-05-07T09:13:48.159Z,309.38
2023-05-07T09:14:48.154Z,315.00
2023-05-07T09:15:48.203Z,326.25
2023-05-07T09:16:48.229Z,337.50
2023-05-07T09:17:48.138Z,348.75
2023-05-07T09:18:48.102Z,360.00
2023-05-07T09:19:48.083Z,365.62
2023-05-07T09:20:48.105Z,376.88
2023-05-07T09:21:48.099Z,382.50
2023-05-07T09:22:48.054Z,393.75
2023-05-07T09:23:48.043Z,393.75
2023-05-07T09:24:48.054Z,393.75
2023-05-07T09:25:48.030Z,393.75
2023-05-07T09:26:48.028Z,388.12
2023-05-07T09:27:47.992Z,388.12
2023-05-07T09:28:48.001Z,388.12
2023-05-07T09:29:47.960Z,388.12
2023-05-07T09:30:47.951Z,388.12
2023-05-07T09:31:47.995Z,382.50
2023-05-07T09:32:48.008Z,376.88
2023-05-07T09:33:47.947Z,371.25
2023-05-07T09:34:47.924Z,365.62
2023-05-07T09:35:47.926Z,354.38
2023-05-07T09:36:47.904Z,343.12
2023-05-07T09:37:47.916Z,337.50
2023-05-07T09:38:47.860Z,331.88
2023-05-07T09:39:47.875Z,326.25
2023-05-07T09:40:47.848Z,326.25
2023-05-07T09:41:47.842Z,320.62
2023-05-07T09:42:47.827Z,315.00
2023-05-07T09:43:47.810Z,320.62
2023-05-07T09:44:47.840Z,315.00
2023-05-07T09:45:47.815Z,309.38
2023-05-07T09:46:47.833Z,309.38
2023-05-07T09:47:47.826Z,303.75
2023-05-07T09:48:47.745Z,298.12
2023-05-07T09:49:47.751Z,303.75
2023-05-07T09:50:47.737Z,303.75
2023-05-07T09:51:47.716Z,303.75
2023-05-07T09:52:47.745Z,298.12
2023-05-07T09:53:47.739Z,298.12
2023-05-07T09:54:47.743Z,298.12
2023-05-07T09:55:47.770Z,298.12
2023-05-07T09:56:47.750Z,303.75
2023-05-07T09:57:47.681Z,303.75
2023-05-07T09:58:47.750Z,309.38
2023-05-07T09:59:47.770Z,315.00
2023-05-07T10:00:47.774Z,320.62
2023-05-07T10:01:47.621Z,326.25
2023-05-07T10:02:47.821Z,331.88
2023-05-07T10:03:47.666Z,337.50
2023-05-07T10:04:47.568Z,343.12
2023-05-07T10:05:47.554Z,343.12
2023-05-07T10:06:47.546Z,348.75
2023-05-07T10:07:47.535Z,354.38
2023-05-07T10:08:47.526Z,360.00
2023-05-07T10:09:49.270Z,365.62
2023-05-07T10:10:47.500Z,371.25
2023-05-07T10:11:47.471Z,376.88
2023-05-07T10:12:47.492Z,376.88
2023-05-07T10:13:47.450Z,382.50
2023-05-07T10:14:47.438Z,388.12
2023-05-07T10:15:47.412Z,393.75
2023-05-07T10:16:47.417Z,399.38
2023-05-07T10:17:47.477Z,405.00
2023-05-07T10:18:47.478Z,416.25
2023-05-07T10:19:47.366Z,433.12
2023-05-07T10:20:47.387Z,438.75
2023-05-07T10:21:47.339Z,450.00
2023-05-07T10:22:47.358Z,450.00
2023-05-07T10:23:47.333Z,455.62
2023-05-07T10:24:47.359Z,461.25
2023-05-07T10:25:47.337Z,461.25
2023-05-07T10:26:47.301Z,461.25
2023-05-07T10:27:47.285Z,455.62
2023-05-07T10:28:47.303Z,455.62
2023-05-07T10:29:47.262Z,455.62
2023-05-07T10:30:47.287Z,455.62
2023-05-07T10:31:47.241Z,461.25
2023-05-07T10:32:47.231Z,466.88
2023-05-07T10:33:47.221Z,478.12
2023-05-07T10:34:47.224Z,483.75
2023-05-07T10:35:47.171Z,489.38
2023-05-07T10:36:47.196Z,500.62
2023-05-07T10:37:47.170Z,506.25
2023-05-07T10:38:47.160Z,517.50
2023-05-07T10:39:47.130Z,523.12
2023-05-07T10:40:47.943Z,534.38
2023-05-07T10:41:47.108Z,545.62
2023-05-07T10:42:47.142Z,551.25
2023-05-07T10:43:47.091Z,556.88
2023-05-07T10:44:47.096Z,556.88
2023-05-07T10:45:47.067Z,562.50
2023-05-07T10:46:47.086Z,568.12
2023-05-07T10:47:47.054Z,573.75
2023-05-07T10:48:47.033Z,568.12
2023-05-07T10:49:47.069Z,556.88
2023-05-07T10:50:47.074Z,540.00
2023-05-07T10:51:46.983Z,523.12
2023-05-07T10:52:46.998Z,511.88
2023-05-07T10:53:46.955Z,511.88
2023-05-07T10:54:46.995Z,506.25
2023-05-07T10:55:46.949Z,495.00
2023-05-07T10:56:46.922Z,483.75
2023-05-07T10:57:46.915Z,478.12
2023-05-07T10:58:46.938Z,461.25
2023-05-07T10:59:46.885Z,455.62
2023-05-07T11:00:46.903Z,438.75
2023-05-07T11:01:46.945Z,416.25
2023-05-07T11:02:46.878Z,388.12
2023-05-07T11:03:46.846Z,348.75
2023-05-07T11:04:46.907Z,315.00
2023-05-07T11:05:46.967Z,286.88
2023-05-07T11:06:46.824Z,247.50
2023-05-07T11:07:46.801Z,219.38
2023-05-07T11:08:46.790Z,196.88
2023-05-07T11:09:46.772Z,185.62
2023-05-07T11:10:46.753Z,185.62
2023-05-07T11:11:47.790Z,185.62
2023-05-07T11:12:46.747Z,191.25
2023-05-07T11:13:46.731Z,196.88
2023-05-07T11:14:46.712Z,196.88
2023-05-07T11:15:46.872Z,202.50
2023-05-07T11:16:46.819Z,208.12
2023-05-07T11:17:46.782Z,213.75
2023-05-07T11:18:46.668Z,208.12
2023-05-07T11:19:46.651Z,196.88
2023-05-07T11:20:46.850Z,180.00
2023-05-07T11:21:46.631Z,151.88
2023-05-07T11:22:46.632Z,123.75
2023-05-07T11:23:46.596Z,106.88
2023-05-07T11:24:46.577Z,101.25
2023-05-07T11:25:46.569Z,106.88
2023-05-07T11:26:46.613Z,118.12
2023-05-07T11:27:46.600Z,129.38
2023-05-07T11:28:46.576Z,146.25
2023-05-07T11:29:46.537Z,174.38
2023-05-07T11:30:46.510Z,202.50
2023-05-07T11:31:46.553Z,230.62
2023-05-07T11:32:46.539Z,241.88
2023-05-07T11:33:46.500Z,253.12
2023-05-07T11:34:46.491Z,253.12
2023-05-07T11:35:46.514Z,253.12
2023-05-07T11:36:46.464Z,247.50
2023-05-07T11:37:46.445Z,241.88
2023-05-07T11:38:46.451Z,241.88
2023-05-07T11:39:46.442Z,230.62
2023-05-07T11:40:46.400Z,225.00
2023-05-07T11:41:46.381Z,230.62
2023-05-07T11:42:46.432Z,230.62
2023-05-07T11:43:46.359Z,236.25
2023-05-07T11:44:46.364Z,236.25
2023-05-07T11:45:46.430Z,236.25
2023-05-07T11:46:46.325Z,230.62
2023-05-07T11:47:46.363Z,225.00
2023-05-07T11:48:46.425Z,219.38
2023-05-07T11:49:46.292Z,202.50
2023-05-07T11:50:46.287Z,174.38
2023-05-07T11:51:46.280Z,168.75
2023-05-07T11:52:46.281Z,168.75
2023-05-07T11:53:46.256Z,168.75
2023-05-07T11:54:46.238Z,174.38
2023-05-07T11:55:46.244Z,174.38
2023-05-07T11:56:46.273Z,185.62
2023-05-07T11:57:46.245Z,225.00
2023-05-07T11:58:46.213Z,241.88
2023-05-07T11:59:46.215Z,247.50
2023-05-07T12:00:46.176Z,253.12
2023-05-07T12:01:46.219Z,258.75
2023-05-07T12:02:46.362Z,264.38
2023-05-07T12:03:46.204Z,264.38
2023-05-07T12:04:46.209Z,258.75
2023-05-07T12:05:46.134Z,253.12
2023-05-07T12:06:46.127Z,253.12
2023-05-07T12:07:46.117Z,247.50
2023-05-07T12:08:47.862Z,241.88
2023-05-07T12:09:46.091Z,236.25
2023-05-07T12:10:46.079Z,230.62
2023-05-07T12:11:46.106Z,230.62
2023-05-07T12:12:46.074Z,225.00
2023-05-07T12:13:46.055Z,225.00
2023-05-07T12:14:46.106Z,219.38
2023-05-07T12:15:46.041Z,219.38
2023-05-07T12:16:46.061Z,219.38
2023-05-07T12:17:46.021Z,219.38
2023-05-07T12:18:46.008Z,219.38
2023-05-07T12:19:46.012Z,225.00
2023-05-07T12:20:46.006Z,230.62
2023-05-07T12:21:45.975Z,236.25
2023-05-07T12:22:45.975Z,247.50
2023-05-07T12:23:45.962Z,258.75
2023-05-07T12:24:46.022Z,270.00
2023-05-07T12:25:45.943Z,281.25
2023-05-07T12:26:45.949Z,286.88
2023-05-07T12:27:45.925Z,286.88
2023-05-07T12:28:45.907Z,286.88
2023-05-07T12:29:45.885Z,281.25
2023-05-07T12:30:45.903Z,281.25
2023-05-07T12:31:45.903Z,275.62
2023-05-07T12:32:45.872Z,270.00
2023-05-07T12:33:45.888Z,258.75
2023-05-07T12:34:46.047Z,247.50
2023-05-07T12:35:45.860Z,241.88
2023-05-07T12:36:45.875Z,236.25
2023-05-07T12:37:45.855Z,225.00
2023-05-07T12:38:45.816Z,219.38
2023-05-07T12:39:45.809Z,213.75
2023-05-07T12:40:45.828Z,208.12
2023-05-07T12:41:45.785Z,202.50
2023-05-07T12:42:45.765Z,202.50
2023-05-07T12:43:45.759Z,196.88
2023-05-07T12:44:45.737Z,196.88
2023-05-07T12:45:45.730Z,196.88